Date,TemperatureHighF,TemperatureAvgF,TemperatureLowF,DewpointHighF,DewpointAvgF,DewpointLowF,HumidityHigh,HumidityAvg,HumidityLow,PressureMaxIn,PressureMinIn,WindSpeedMaxMPH,WindSpeedAvgMPH,GustSpeedMaxMPH,PrecipitationSumIn
2013-2-1,45.7,26.6,12.2,20.9,11.0,3.9,73,53,37,30.42,30.15,16,5,17,0.00
2013-2-2,54.3,38.5,22.8,30.8,24.2,13.1,75,57,38,30.24,30.15,23,5,24,0.00
2013-2-3,53.8,44.3,32.0,33.1,24.8,18.8,81,48,34,30.27,29.98,19,4,20,0.00
2013-2-4,60.6,49.5,35.8,45.4,35.5,23.8,88,60,41,29.98,29.83,55,6,57,0.14
2013-2-5,65.7,45.6,28.9,53.8,33.6,26.6,100,69,30,30.06,29.92,20,3,21,0.00
2013-2-6,64.6,51.2,35.2,40.7,35.2,27.9,84,56,37,30.12,29.98,19,6,20,0.00
2013-2-7,56.8,51.4,42.4,56.1,50.1,39.1,100,95,74,30.09,29.86,22,6,23,0.02
2013-2-8,53.4,41.9,32.9,39.9,32.2,27.7,95,71,44,30.27,30.09,21,6,22,0.00
2013-2-9,48.4,40.7,33.6,45.1,33.8,26.9,100,79,44,30.21,29.86,58,8,61,0.07
2013-2-10,60.6,52.3,40.1,55.2,38.2,23.5,100,65,33,30.06,29.65,35,13,36,0.24
2013-2-11,55.2,39.8,28.4,29.2,23.2,17.2,83,53,33,30.18,30.03,15,2,16,0.00
2013-2-12,46.0,37.8,28.6,36.3,28.4,21.7,100,70,50,30.15,29.92,14,4,15,0.06
2013-2-13,51.1,39.3,33.1,42.1,32.9,27.6,100,81,48,30.01,29.95,22,7,23,0.08
2013-2-14,57.2,45.3,33.6,34.3,30.6,27.5,86,58,40,30.15,29.95,14,5,14,0.00
2013-2-15,44.2,34.6,21.7,27.3,16.6,7.1,69,48,38,30.30,30.15,20,4,21,0.00
2013-2-16,37.0,31.8,21.7,25.0,17.9,9.8,86,58,44,30.30,30.12,14,5,20,0.00
2013-2-17,63.1,48.6,31.6,33.0,25.2,13.7,53,41,32,30.12,29.83,26,8,27,0.00
2013-2-18,58.5,50.0,34.3,54.5,38.1,23.2,96,65,38,30.12,29.62,39,12,40,0.03
2013-2-19,46.0,34.1,21.6,23.9,18.3,12.3,75,53,38,30.30,30.12,27,4,28,0.00
2013-2-20,34.5,31.6,27.7,32.5,21.0,13.2,92,66,45,30.30,30.03,19,6,20,0.00
2013-2-21,36.1,32.8,28.8,36.1,31.7,24.6,100,96,81,30.06,29.68,29,5,30,0.39
2013-2-22,37.8,29.1,21.0,34.3,21.4,17.1,100,74,51,30.09,29.86,30,9,31,0.00
2013-2-23,45.3,31.1,18.9,27.0,20.9,16.6,99,69,42,30.09,29.95,16,2,17,0.00
2013-2-24,59.2,43.7,26.1,35.6,28.7,20.1,90,58,34,30.01,29.83,19,6,20,0.00
2013-2-25,41.7,39.1,35.8,41.0,33.7,27.4,100,82,58,29.89,29.44,156,10,163,0.21
2013-2-26,36.1,33.6,32.2,36.1,33.6,32.2,100,100,100,29.89,29.39,26,6,27,0.00
2013-2-27,39.4,34.1,31.8,35.4,30.4,25.0,100,87,65,30.06,29.86,32,10,33,0.04
2013-2-28,36.3,32.3,26.8,29.6,26.2,23.4,99,79,65,30.18,30.06,19,7,20,0.00